Time;durP1;ratioP1;P1;durP2;ratioP2;P2;SDS_P1;SDS_P2;PMS_P1;PMS_P2;Temp;Humidity;BMP_temperature;BMP_pressure;BME280_temperature;BME280_humidity;BME280_pressure;Samples;Min_cycle;Max_cycle;Signal;HPM_P1;HPM_P2
2023/04/17 00:02:00;;;;;;;;;;;8.50;83.70;;;;;;6153162;23;19947;-96
2023/04/17 00:04:26;;;;;;;;;;;8.50;83.50;;;;;;6153272;23;19904;-96
2023/04/17 00:06:52;;;;;;;;;;;8.50;83.30;;;;;;6128674;23;19908;-96
2023/04/17 00:09:18;;;;;;;;;;;8.50;83.20;;;;;;6152480;23;19889;-96
2023/04/17 00:11:48;;;;;;;;;;;8.50;82.90;;;;;;6127562;23;19913;-96
2023/04/17 00:14:14;;;;;;;;;;;8.50;82.70;;;;;;6152107;23;19905;-96
2023/04/17 00:16:40;;;;;;;;;;;8.50;82.70;;;;;;6126822;23;19928;-96
2023/04/17 00:19:05;;;;;;;;;;;8.50;83.00;;;;;;6126509;23;19905;-96
2023/04/17 00:21:31;;;;;;;;;;;8.50;84.00;;;;;;6151167;23;19949;-96
2023/04/17 00:23:57;;;;;;;;;;;8.40;84.10;;;;;;6124550;23;19889;-96
2023/04/17 00:26:24;;;;;;;;;;;8.50;84.60;;;;;;6125566;23;19905;-96
2023/04/17 00:28:50;;;;;;;;;;;8.50;84.30;;;;;;6126172;23;19905;-96
2023/04/17 00:31:16;;;;;;;;;;;8.50;83.80;;;;;;6125566;23;19960;-96
2023/04/17 00:33:42;;;;;;;;;;;8.40;83.60;;;;;;6151147;23;19912;-96
2023/04/17 00:36:08;;;;;;;;;;;8.40;83.60;;;;;;6126941;23;19911;-96
2023/04/17 00:38:37;;;;;;;;;;;8.40;83.60;;;;;;6128417;23;19905;-96
2023/04/17 00:41:03;;;;;;;;;;;8.40;83.50;;;;;;6153524;23;19905;-96
2023/04/17 00:43:29;;;;;;;;;;;8.30;84.00;;;;;;6126726;23;19909;-96
2023/04/17 00:45:55;;;;;;;;;;;8.20;84.40;;;;;;6153185;23;19905;-96
2023/04/17 00:48:24;;;;;;;;;;;8.20;84.40;;;;;;6126968;23;19905;-96
2023/04/17 00:50:50;;;;;;;;;;;8.10;84.30;;;;;;6125704;23;19933;-96
2023/04/17 00:53:16;;;;;;;;;;;8.10;84.40;;;;;;6125022;23;19905;-96
2023/04/17 00:55:42;;;;;;;;;;;8.00;84.40;;;;;;6150247;23;19905;-96
2023/04/17 00:58:08;;;;;;;;;;;8.00;84.70;;;;;;6151988;23;19905;-96
2023/04/17 01:00:34;;;;;;;;;;;8.00;84.60;;;;;;6127983;23;19939;-96
2023/04/17 01:03:00;;;;;;;;;;;8.10;84.80;;;;;;6127542;23;19912;-96
2023/04/17 01:05:26;;;;;;;;;;;8.00;85.10;;;;;;6153355;23;19961;-96
2023/04/17 01:07:56;;;;;;;;;;;7.90;85.30;;;;;;6153279;23;19905;-96
2023/04/17 01:10:22;;;;;;;;;;;7.90;85.40;;;;;;6127218;23;19913;-96
2023/04/17 01:13:00;;;;;;;;;;;8.00;85.20;;;;;;6127568;23;19925;-96
2023/04/17 01:15:26;;;;;;;;;;;8.00;84.90;;;;;;6127044;23;19905;-96
2023/04/17 01:17:51;;;;;;;;;;;8.00;84.90;;;;;;6126312;23;19940;-96
2023/04/17 01:20:17;;;;;;;;;;;8.00;84.80;;;;;;6151717;23;19905;-96
2023/04/17 01:22:43;;;;;;;;;;;8.10;84.60;;;;;;6149642;23;19984;-96
2023/04/17 01:25:08;;;;;;;;;;;8.10;84.70;;;;;;6124016;23;19940;-96
2023/04/17 01:27:34;;;;;;;;;;;8.10;84.60;;;;;;6147002;23;19905;-96
2023/04/17 01:30:00;;;;;;;;;;;8.20;84.90;;;;;;6148113;23;19904;-96
2023/04/17 01:32:25;;;;;;;;;;;8.30;85.00;;;;;;6124392;23;19936;-96
2023/04/17 01:34:51;;;;;;;;;;;8.30;84.30;;;;;;6150635;23;20299;-96
2023/04/17 01:37:17;;;;;;;;;;;8.40;83.60;;;;;;6151706;23;19912;-96
2023/04/17 01:39:42;;;;;;;;;;;8.30;83.40;;;;;;6151640;23;19905;-96
2023/04/17 01:42:08;;;;;;;;;;;8.20;83.40;;;;;;6127446;23;19905;-96
2023/04/17 01:44:36;;;;;;;;;;;8.10;83.90;;;;;;6152269;23;19905;-96
2023/04/17 01:47:02;;;;;;;;;;;8.00;84.80;;;;;;6127134;23;19929;-96
2023/04/17 01:49:28;;;;;;;;;;;8.00;84.90;;;;;;6126332;23;19974;-96
2023/04/17 01:51:53;;;;;;;;;;;8.00;84.70;;;;;;6150928;23;19975;-96
2023/04/17 01:54:20;;;;;;;;;;;8.10;84.60;;;;;;6149209;23;19905;-96
2023/04/17 01:56:45;;;;;;;;;;;8.10;84.60;;;;;;6123536;23;19905;-96
2023/04/17 01:59:11;;;;;;;;;;;8.10;84.60;;;;;;6148679;23;19905;-96
2023/04/17 02:01:37;;;;;;;;;;;8.10;84.60;;;;;;6121390;23;19920;-96
2023/04/17 02:04:02;;;;;;;;;;;8.00;84.70;;;;;;6146152;23;19911;-96
2023/04/17 02:06:28;;;;;;;;;;;8.10;84.90;;;;;;6144548;23;19909;-96
2023/04/17 02:08:54;;;;;;;;;;;8.20;84.90;;;;;;6148069;23;19905;-96
2023/04/17 02:11:19;;;;;;;;;;;8.20;84.70;;;;;;6120382;23;19913;-96
2023/04/17 02:13:45;;;;;;;;;;;8.20;84.80;;;;;;6144133;23;19905;-96
2023/04/17 02:16:11;;;;;;;;;;;8.20;84.70;;;;;;6141243;23;20032;-96
2023/04/17 02:18:37;;;;;;;;;;;8.20;84.30;;;;;;6153510;23;19953;-96
2023/04/17 02:53:42;;;;;;;;;;;8.40;83.80;;;;;;6126517;23;19947;31
2023/04/17 02:56:13;;;;;;;;;;;8.30;83.80;;;;;;6154584;23;19925;-96
2023/04/17 02:58:43;;;;;;;;;;;8.30;83.90;;;;;;6129726;23;19897;-96
2023/04/17 03:01:09;;;;;;;;;;;8.40;84.30;;;;;;6129285;23;19900;-96
2023/04/17 03:03:40;;;;;;;;;;;8.40;84.90;;;;;;6180413;23;19941;-96
2023/04/17 03:06:07;;;;;;;;;;;8.50;85.00;;;;;;6156008;23;19905;-96
2023/04/17 03:08:34;;;;;;;;;;;8.60;84.60;;;;;;6181700;23;19904;-96
2023/04/17 03:11:06;;;;;;;;;;;8.60;85.10;;;;;;6175492;23;19909;-96
2023/04/17 03:13:35;;;;;;;;;;;8.60;84.90;;;;;;6156293;23;19905;-96
2023/04/17 03:16:03;;;;;;;;;;;8.60;85.00;;;;;;6156573;23;19908;-96
2023/04/17 03:18:29;;;;;;;;;;;8.70;84.40;;;;;;6156268;23;19905;-96
2023/04/17 03:20:56;;;;;;;;;;;8.70;83.50;;;;;;6180073;23;19905;-96
2023/04/17 03:23:21;;;;;;;;;;;8.60;83.00;;;;;;6149737;23;19904;-96
2023/04/17 03:25:49;;;;;;;;;;;8.50;83.00;;;;;;6142910;23;19908;-96
2023/04/17 03:28:14;;;;;;;;;;;8.40;83.40;;;;;;6158531;23;19912;-96
2023/04/17 03:30:48;;;;;;;;;;;8.40;84.00;;;;;;6182196;23;20223;-96
2023/04/17 03:33:15;;;;;;;;;;;8.40;84.20;;;;;;6158567;23;19889;-96
2023/04/17 03:35:41;;;;;;;;;;;8.40;84.40;;;;;;6182923;23;19952;-96
2023/04/17 03:38:08;;;;;;;;;;;8.50;84.50;;;;;;6158884;23;19905;-96
2023/04/17 03:40:39;;;;;;;;;;;8.60;83.60;;;;;;6183653;23;19932;-96
2023/04/17 03:43:07;;;;;;;;;;;8.70;83.80;;;;;;6183621;23;19899;-96
2023/04/17 05:21:26;;;;;;;;;;;9.50;81.40;;;;;;6130453;23;19969;-96
2023/04/17 05:23:58;;;;;;;;;;;9.60;81.00;;;;;;6100593;23;19932;-96
2023/04/17 05:26:26;;;;;;;;;;;9.60;81.20;;;;;;6101435;23;19897;-96
2023/04/17 05:29:03;;;;;;;;;;;9.70;81.70;;;;;;6102253;23;19953;-96
2023/04/17 05:31:31;;;;;;;;;;;9.60;81.40;;;;;;6125889;23;19909;-96
2023/04/17 05:41:52;;;;;;;;;;;9.70;81.90;;;;;;6110941;23;19954;-96
2023/04/17 05:44:17;;;;;;;;;;;9.70;81.30;;;;;;6107386;23;20295;-93
2023/04/17 05:46:43;;;;;;;;;;;9.70;81.50;;;;;;6128282;23;19912;-93
2023/04/17 05:49:08;;;;;;;;;;;9.70;80.40;;;;;;6128279;23;19904;-93
2023/04/17 05:51:34;;;;;;;;;;;9.70;80.40;;;;;;6128255;23;20323;-93
2023/04/17 05:54:01;;;;;;;;;;;9.80;79.90;;;;;;6128048;23;19905;-94
2023/04/17 05:56:27;;;;;;;;;;;9.90;80.20;;;;;;6128014;23;19916;-94
2023/04/17 05:58:52;;;;;;;;;;;9.90;80.00;;;;;;6128071;23;19905;-93
2023/04/17 06:01:21;;;;;;;;;;;10.00;80.00;;;;;;6127783;23;19905;-93
2023/04/17 06:03:46;;;;;;;;;;;10.10;80.30;;;;;;6128076;23;19923;-94
2023/04/17 06:06:12;;;;;;;;;;;10.30;80.50;;;;;;6127844;23;20332;-93
2023/04/17 06:08:37;;;;;;;;;;;10.40;80.30;;;;;;6128048;23;19912;-93
2023/04/17 06:11:03;;;;;;;;;;;10.50;80.20;;;;;;6127899;23;20391;-93
2023/04/17 06:13:29;;;;;;;;;;;10.60;80.30;;;;;;6128264;23;20270;-94
2023/04/17 06:15:54;;;;;;;;;;;10.60;80.00;;;;;;6127768;23;20314;-95
2023/04/17 06:18:20;;;;;;;;;;;10.60;79.70;;;;;;6128124;23;19988;-95
2023/04/17 06:20:46;;;;;;;;;;;10.60;79.90;;;;;;6127671;23;19983;-94
2023/04/17 06:23:12;;;;;;;;;;;10.60;79.90;;;;;;6127822;23;19956;-95
2023/04/17 06:25:37;;;;;;;;;;;10.60;79.80;;;;;;6128482;23;19912;-93
2023/04/17 06:28:03;;;;;;;;;;;10.60;78.80;;;;;;6127803;23;20225;-93
2023/04/17 06:30:28;;;;;;;;;;;10.70;78.20;;;;;;6127651;23;19980;-94
2023/04/17 06:32:54;;;;;;;;;;;10.80;78.90;;;;;;6128149;23;19912;-94
2023/04/17 06:35:20;;;;;;;;;;;10.90;79.10;;;;;;6128249;23;19905;-93
2023/04/17 06:37:45;;;;;;;;;;;11.20;78.60;;;;;;6127690;23;20272;-94
2023/04/17 06:40:12;;;;;;;;;;;11.10;79.80;;;;;;6127791;23;19912;-93
2023/04/17 06:42:37;;;;;;;;;;;11.00;80.90;;;;;;6127375;23;19968;-93
2023/04/17 06:45:04;;;;;;;;;;;11.00;81.60;;;;;;6128281;23;19909;-93
2023/04/17 06:47:29;;;;;;;;;;;11.10;82.40;;;;;;6127537;23;19984;-94
2023/04/17 06:49:56;;;;;;;;;;;11.10;82.10;;;;;;6127640;23;19912;-94
2023/04/17 06:52:22;;;;;;;;;;;11.20;82.10;;;;;;6128121;23;19916;-94
2023/04/17 06:54:48;;;;;;;;;;;11.30;82.00;;;;;;6127682;23;19905;-94
2023/04/17 06:57:13;;;;;;;;;;;11.30;82.50;;;;;;6127513;23;19912;-94
2023/04/17 06:59:39;;;;;;;;;;;11.30;82.90;;;;;;6127512;23;19928;-94
2023/04/17 07:02:04;;;;;;;;;;;11.30;81.70;;;;;;6127537;23;19956;-93
2023/04/17 07:04:30;;;;;;;;;;;11.30;81.70;;;;;;6127179;23;19983;-95
2023/04/17 07:06:56;;;;;;;;;;;11.20;81.70;;;;;;6127759;23;19905;-93
2023/04/17 07:09:21;;;;;;;;;;;11.30;81.80;;;;;;6127345;23;19905;-93
2023/04/17 07:11:47;;;;;;;;;;;11.30;81.20;;;;;;6101074;23;20277;-94
2023/04/17 07:14:12;;;;;;;;;;;11.40;80.60;;;;;;6127647;23;19905;-93
2023/04/17 07:16:38;;;;;;;;;;;11.40;80.20;;;;;;6127563;23;20223;-94
2023/04/17 07:19:03;;;;;;;;;;;11.40;80.80;;;;;;6127245;23;19905;-93
2023/04/17 07:21:32;;;;;;;;;;;11.50;80.20;;;;;;6127265;23;20243;-95
2023/04/17 07:23:58;;;;;;;;;;;11.70;79.70;;;;;;6127416;23;19905;-94
2023/04/17 07:26:23;;;;;;;;;;;11.80;79.50;;;;;;6127566;23;20383;-93
2023/04/17 07:28:49;;;;;;;;;;;11.90;79.00;;;;;;6127823;23;19989;-94
2023/04/17 07:31:15;;;;;;;;;;;12.00;78.60;;;;;;6127282;23;19909;-94
2023/04/17 07:33:40;;;;;;;;;;;12.20;79.00;;;;;;6127432;23;19928;-95
2023/04/17 07:36:10;;;;;;;;;;;12.30;79.20;;;;;;6127562;23;19952;-94
2023/04/17 07:38:35;;;;;;;;;;;12.40;78.50;;;;;;6127925;23;19965;-95
2023/04/17 07:41:01;;;;;;;;;;;12.40;77.90;;;;;;6126963;23;19904;-94
2023/04/17 07:43:27;;;;;;;;;;;12.40;78.60;;;;;;6126913;23;20311;-94
2023/04/17 07:45:53;;;;;;;;;;;12.60;78.40;;;;;;6127074;23;19905;-94
2023/04/17 07:48:21;;;;;;;;;;;12.70;77.60;;;;;;6101075;23;20236;-94
2023/04/17 07:50:49;;;;;;;;;;;12.80;76.60;;;;;;6126976;23;19932;-93
2023/04/17 07:53:16;;;;;;;;;;;12.80;75.50;;;;;;6127598;23;19905;-94
2023/04/17 07:55:42;;;;;;;;;;;12.90;76.30;;;;;;6127011;23;19909;-95
2023/04/17 07:58:10;;;;;;;;;;;12.80;75.70;;;;;;6127428;23;19905;-94
2023/04/17 08:00:38;;;;;;;;;;;12.80;75.90;;;;;;6127101;23;19981;-94
2023/04/17 08:03:04;;;;;;;;;;;12.80;76.30;;;;;;6127277;23;19927;-94
2023/04/17 08:05:30;;;;;;;;;;;12.90;76.60;;;;;;6128223;23;19912;-94
2023/04/17 08:07:59;;;;;;;;;;;13.00;76.30;;;;;;6126853;23;20446;-95
2023/04/17 08:10:25;;;;;;;;;;;13.10;76.30;;;;;;6127121;23;19931;-94
2023/04/17 08:12:51;;;;;;;;;;;13.10;75.80;;;;;;6127174;23;19905;-94
2023/04/17 08:15:17;;;;;;;;;;;13.30;76.10;;;;;;6128894;23;19909;-96
2023/04/17 08:17:43;;;;;;;;;;;13.30;75.90;;;;;;6130830;23;20432;-96
2023/04/17 08:20:12;;;;;;;;;;;13.40;75.30;;;;;;6133366;23;19932;-96
2023/04/17 08:22:41;;;;;;;;;;;13.50;75.30;;;;;;6127946;23;20319;-96
2023/04/17 08:25:08;;;;;;;;;;;13.70;74.20;;;;;;6127269;23;19940;-94
2023/04/17 08:27:38;;;;;;;;;;;13.90;74.20;;;;;;6126905;23;19905;-94
2023/04/17 08:30:04;;;;;;;;;;;13.90;74.20;;;;;;6127055;23;20212;-94
2023/04/17 08:32:36;;;;;;;;;;;13.90;73.30;;;;;;6101049;23;19988;-94
2023/04/17 08:35:01;;;;;;;;;;;14.00;73.20;;;;;;6126880;23;19905;-94
2023/04/17 08:37:27;;;;;;;;;;;14.00;74.00;;;;;;6127437;23;19915;-95
2023/04/17 08:39:52;;;;;;;;;;;14.10;74.40;;;;;;6127321;23;19961;-95
2023/04/17 08:42:18;;;;;;;;;;;14.10;73.40;;;;;;6127005;23;19917;-95
2023/04/17 08:44:44;;;;;;;;;;;14.20;73.50;;;;;;6127717;23;20248;-94
2023/04/17 08:47:11;;;;;;;;;;;14.30;74.60;;;;;;6127352;23;19905;-95
2023/04/17 08:49:38;;;;;;;;;;;14.30;73.20;;;;;;6127589;23;19905;-94
2023/04/17 08:52:04;;;;;;;;;;;14.40;73.20;;;;;;6127428;23;19917;-95
2023/04/17 08:54:32;;;;;;;;;;;14.50;73.30;;;;;;6127326;23;19908;-94
2023/04/17 08:57:00;;;;;;;;;;;14.60;72.80;;;;;;6127938;23;19931;-94
2023/04/17 08:59:26;;;;;;;;;;;14.70;72.60;;;;;;6128975;23;19941;-95
2023/04/17 09:02:01;;;;;;;;;;;14.90;72.50;;;;;;6129499;23;19912;-94
2023/04/17 09:04:40;;;;;;;;;;;15.00;69.50;;;;;;6128891;23;19946;-94
2023/04/17 09:07:06;;;;;;;;;;;15.10;67.40;;;;;;6129348;23;19909;-94
2023/04/17 09:09:51;;;;;;;;;;;15.30;66.60;;;;;;6129156;23;19905;-94
2023/04/17 09:12:17;;;;;;;;;;;15.40;64.70;;;;;;6129257;23;20379;-94
2023/04/17 09:14:43;;;;;;;;;;;15.50;65.00;;;;;;6128846;23;19912;-94
2023/04/17 09:17:09;;;;;;;;;;;15.70;64.50;;;;;;6129159;23;19905;-95
2023/04/17 09:19:35;;;;;;;;;;;15.80;64.40;;;;;;6128754;23;19969;-95
2023/04/17 09:22:19;;;;;;;;;;;15.80;64.10;;;;;;6129104;23;19912;-94
2023/04/17 09:24:45;;;;;;;;;;;16.00;63.80;;;;;;6128288;23;19912;-94
2023/04/17 09:27:23;;;;;;;;;;;16.10;63.90;;;;;;6128401;23;19904;-94
2023/04/17 09:29:56;;;;;;;;;;;16.20;63.90;;;;;;6102706;23;19928;-94
2023/04/17 09:32:21;;;;;;;;;;;16.20;62.50;;;;;;6128796;23;19909;-95
2023/04/17 09:34:47;;;;;;;;;;;16.30;61.70;;;;;;6129271;23;20252;-96
2023/04/17 09:37:12;;;;;;;;;;;16.40;59.90;;;;;;6129073;23;19905;-94
2023/04/17 09:39:53;;;;;;;;;;;16.50;57.10;;;;;;6128215;23;19909;-95
2023/04/17 09:42:19;;;;;;;;;;;16.60;55.60;;;;;;6128273;23;19920;-93
2023/04/17 09:44:44;;;;;;;;;;;16.60;55.50;;;;;;6128601;23;19905;-94
2023/04/17 09:47:11;;;;;;;;;;;16.70;51.20;;;;;;6128193;23;19905;-94
2023/04/17 09:49:48;;;;;;;;;;;16.90;52.10;;;;;;6128921;23;20226;-95
2023/04/17 09:52:13;;;;;;;;;;;17.10;52.30;;;;;;6128165;23;19965;-95
2023/04/17 09:54:40;;;;;;;;;;;17.30;52.90;;;;;;6128271;23;19909;-95
2023/04/17 09:57:07;;;;;;;;;;;17.50;55.50;;;;;;6102363;23;19912;-94
2023/04/17 09:59:44;;;;;;;;;;;17.60;54.90;;;;;;6128943;23;19979;-95
2023/04/17 10:02:13;;;;;;;;;;;17.60;52.30;;;;;;6128103;23;20320;-95
2023/04/17 10:04:40;;;;;;;;;;;17.50;53.80;;;;;;6127632;23;19905;-94
2023/04/17 10:07:06;;;;;;;;;;;17.40;50.00;;;;;;6128474;23;19917;-94
2023/04/17 10:09:31;;;;;;;;;;;17.40;49.20;;;;;;6127673;23;19936;-95
2023/04/17 10:11:58;;;;;;;;;;;17.60;51.30;;;;;;6128163;23;19912;-95
2023/04/17 10:14:30;;;;;;;;;;;17.80;52.20;;;;;;6101832;23;19912;-95
2023/04/17 10:16:55;;;;;;;;;;;18.00;46.70;;;;;;6128297;23;19961;-95
2023/04/17 10:19:24;;;;;;;;;;;18.10;46.60;;;;;;6128432;23;19905;-96
2023/04/17 10:22:08;;;;;;;;;;;18.30;48.70;;;;;;6128305;23;19905;-95
2023/04/17 10:24:34;;;;;;;;;;;18.40;48.60;;;;;;6127891;23;20032;-94
2023/04/17 10:27:00;;;;;;;;;;;18.60;48.80;;;;;;6128161;23;19909;-95
2023/04/17 10:29:44;;;;;;;;;;;18.80;44.30;;;;;;6128005;23;20387;-94
2023/04/17 10:32:09;;;;;;;;;;;18.90;45.40;;;;;;6128284;23;19909;-95
2023/04/17 10:34:36;;;;;;;;;;;18.90;44.90;;;;;;6127947;23;19936;-95
2023/04/17 10:37:02;;;;;;;;;;;19.00;45.90;;;;;;6103302;23;20292;-95
2023/04/17 10:39:46;;;;;;;;;;;19.00;43.90;;;;;;6128547;23;19988;-95
2023/04/17 10:42:16;;;;;;;;;;;19.20;45.10;;;;;;6128576;23;19964;-94
2023/04/17 10:44:43;;;;;;;;;;;19.30;43.00;;;;;;6129205;23;19905;-95
2023/04/17 10:47:12;;;;;;;;;;;19.50;47.00;;;;;;6130541;23;19912;-94
2023/04/17 10:49:47;;;;;;;;;;;19.60;45.80;;;;;;6132160;23;19983;-95
2023/04/17 10:52:48;;;;;;;;;;;19.60;45.00;;;;;;6131614;23;19920;-95
2023/04/17 10:55:15;;;;;;;;;;;19.50;45.00;;;;;;5984876;24;19907;-95
2023/04/17 10:57:58;;;;;;;;;;;19.50;43.90;;;;;;6100181;23;19905;-95
2023/04/17 11:00:29;;;;;;;;;;;19.50;45.20;;;;;;6129754;23;19905;-95
2023/04/17 11:02:55;;;;;;;;;;;19.40;42.30;;;;;;6102904;23;19905;-95
2023/04/17 11:05:22;;;;;;;;;;;19.30;45.40;;;;;;6129034;23;19914;-95
2023/04/17 11:07:50;;;;;;;;;;;19.20;42.50;;;;;;6128831;23;19916;-95
2023/04/17 11:10:19;;;;;;;;;;;19.20;46.00;;;;;;6127375;23;19956;-95
2023/04/17 11:12:46;;;;;;;;;;;19.20;44.40;;;;;;6127747;23;20323;-95
2023/04/17 11:15:11;;;;;;;;;;;19.10;46.20;;;;;;6127357;23;19909;-95
2023/04/17 11:17:38;;;;;;;;;;;19.10;46.80;;;;;;6127581;23;19963;-95
2023/04/17 11:20:05;;;;;;;;;;;19.00;47.80;;;;;;6127190;23;19912;-94
2023/04/17 11:22:32;;;;;;;;;;;18.90;45.50;;;;;;6127455;23;19905;-94
2023/04/17 11:24:58;;;;;;;;;;;18.90;45.90;;;;;;6127016;23;19913;-94
2023/04/17 11:27:23;;;;;;;;;;;18.80;43.50;;;;;;6127152;23;19912;-95
2023/04/17 11:29:49;;;;;;;;;;;18.50;45.00;;;;;;6127009;23;19905;-94
2023/04/17 11:32:15;;;;;;;;;;;18.30;45.50;;;;;;6126988;23;19909;-94
2023/04/17 11:34:40;;;;;;;;;;;18.20;46.80;;;;;;6127130;23;19953;-94
2023/04/17 11:37:06;;;;;;;;;;;18.00;48.00;;;;;;6127514;23;19905;-94
2023/04/17 11:39:32;;;;;;;;;;;18.00;47.70;;;;;;6127062;23;19957;-94
2023/04/17 11:41:58;;;;;;;;;;;17.90;47.80;;;;;;6127309;23;20366;-93
2023/04/17 11:44:24;;;;;;;;;;;17.80;46.70;;;;;;6127429;23;19909;-94
2023/04/17 11:46:54;;;;;;;;;;;17.70;49.40;;;;;;6127043;23;19905;-93
2023/04/17 11:49:38;;;;;;;;;;;17.70;50.40;;;;;;6127719;23;19913;-94
2023/04/17 11:52:04;;;;;;;;;;;17.60;49.60;;;;;;6126943;23;20316;-94
2023/04/17 11:54:38;;;;;;;;;;;17.60;49.80;;;;;;6127209;23;19932;-94
2023/04/17 11:57:11;;;;;;;;;;;17.50;48.60;;;;;;6127064;23;19905;-94
2023/04/17 11:59:37;;;;;;;;;;;17.50;52.60;;;;;;6126910;23;20312;-93
2023/04/17 12:02:06;;;;;;;;;;;17.40;53.90;;;;;;6127004;23;19905;-94
2023/04/17 12:04:33;;;;;;;;;;;17.20;52.90;;;;;;6100790;23;19995;-94
2023/04/17 12:06:59;;;;;;;;;;;17.10;51.30;;;;;;6100912;23;20247;-93
2023/04/17 12:09:30;;;;;;;;;;;17.00;53.00;;;;;;6127657;23;19936;-93
2023/04/17 12:11:56;;;;;;;;;;;17.00;53.50;;;;;;6126705;23;19909;-94
2023/04/17 12:14:22;;;;;;;;;;;17.00;51.80;;;;;;6127027;23;19905;-93
2023/04/17 12:16:49;;;;;;;;;;;17.10;52.00;;;;;;6127195;23;20302;-94
2023/04/17 12:19:36;;;;;;;;;;;17.10;55.20;;;;;;6127649;23;19905;-94
2023/04/17 12:22:00;;;;;;;;;;;17.10;53.10;;;;;;6126534;23;19912;-93
2023/04/17 12:24:26;;;;;;;;;;;17.10;53.60;;;;;;6127279;23;19905;-93
2023/04/17 12:26:52;;;;;;;;;;;17.10;53.50;;;;;;6127155;23;19905;-93
2023/04/17 12:29:17;;;;;;;;;;;17.00;53.60;;;;;;6127187;23;19909;-93
2023/04/17 12:31:43;;;;;;;;;;;16.90;53.60;;;;;;6127540;23;19909;-94
2023/04/17 12:34:09;;;;;;;;;;;16.90;51.50;;;;;;6129215;23;19936;-94
2023/04/17 12:36:34;;;;;;;;;;;17.00;53.80;;;;;;6102938;23;19905;-94
2023/04/17 12:39:00;;;;;;;;;;;17.10;53.50;;;;;;6129070;23;19984;-94
2023/04/17 12:41:26;;;;;;;;;;;17.20;54.00;;;;;;6128630;23;19905;-93
2023/04/17 12:43:51;;;;;;;;;;;17.30;55.10;;;;;;6128417;23;19983;-94
2023/04/17 12:46:17;;;;;;;;;;;17.20;54.20;;;;;;6129419;23;19905;-94
2023/04/17 12:48:43;;;;;;;;;;;17.30;55.90;;;;;;6128733;23;19904;-95
2023/04/17 12:51:08;;;;;;;;;;;17.30;53.10;;;;;;6128589;23;19913;-94
2023/04/17 12:53:34;;;;;;;;;;;17.30;53.60;;;;;;6102810;23;20327;-93
2023/04/17 12:55:59;;;;;;;;;;;17.30;54.30;;;;;;6128954;23;20243;-93
2023/04/17 12:58:25;;;;;;;;;;;17.40;53.00;;;;;;6128972;23;19961;-93
2023/04/17 13:00:51;;;;;;;;;;;17.40;54.10;;;;;;6128713;23;19905;-94
2023/04/17 13:21:24;;;;;;;;;;;17.50;54.90;;;;;;6161872;23;19911;-96
